createdAt,value
2024-02-05T00:01:09.687Z,4.20
2024-02-05T00:03:37.861Z,3.92
2024-02-05T00:06:06.820Z,4.13
2024-02-05T00:08:35.735Z,5.30
2024-02-05T00:11:04.718Z,4.43
2024-02-05T00:13:33.122Z,4.57
2024-02-05T00:16:01.674Z,5.50
2024-02-05T00:18:31.491Z,4.57
2024-02-05T00:20:59.631Z,5.28
2024-02-05T00:23:27.662Z,4.25
2024-02-05T00:25:55.785Z,5.22
2024-02-05T00:28:24.279Z,5.05
2024-02-05T00:30:52.543Z,4.72
2024-02-05T00:33:20.742Z,5.40
2024-02-05T00:35:50.343Z,4.60
2024-02-05T00:38:18.800Z,5.18
2024-02-05T00:40:48.569Z,5.50
2024-02-05T00:43:16.802Z,5.40
2024-02-05T00:45:44.999Z,5.50
2024-02-05T00:48:13.202Z,5.10
2024-02-05T00:50:42.788Z,5.55
2024-02-05T00:53:15.250Z,4.65
2024-02-05T00:55:43.515Z,5.05
2024-02-05T00:58:11.668Z,5.50
2024-02-05T01:00:39.777Z,5.18
2024-02-05T01:03:09.145Z,5.85
2024-02-05T01:05:37.625Z,4.82
2024-02-05T01:08:06.569Z,5.07
2024-02-05T01:10:36.114Z,4.65
2024-02-05T01:13:05.428Z,5.05
2024-02-05T01:15:34.331Z,5.13
2024-02-05T01:18:04.171Z,4.38
2024-02-05T01:20:32.557Z,6.03
2024-02-05T01:23:00.721Z,6.35
2024-02-05T01:25:28.880Z,6.60
2024-02-05T01:27:58.467Z,5.60
2024-02-05T01:30:26.569Z,5.53
2024-02-05T01:32:54.720Z,5.20
2024-02-05T01:35:23.710Z,5.43
2024-02-05T01:37:51.891Z,5.03
2024-02-05T01:40:19.969Z,5.88
2024-02-05T01:42:48.091Z,5.72
2024-02-05T01:45:17.619Z,4.47
2024-02-05T01:47:45.871Z,5.90
2024-02-05T01:50:16.242Z,5.82
2024-02-05T01:52:47.372Z,5.13
2024-02-05T01:55:18.035Z,5.80
2024-02-05T01:57:46.961Z,4.78
2024-02-05T02:00:18.109Z,5.30
2024-02-05T02:02:47.492Z,5.15
2024-02-05T02:05:19.664Z,5.35
2024-02-05T02:07:48.645Z,5.63
2024-02-05T02:10:16.879Z,5.45
2024-02-05T02:12:48.562Z,4.78
2024-02-05T02:15:18.307Z,6.07
2024-02-05T02:17:48.067Z,5.15
2024-02-05T02:20:16.898Z,5.00
2024-02-05T02:22:54.811Z,5.05
2024-02-05T02:25:24.714Z,5.50
2024-02-05T02:27:54.531Z,6.15
2024-02-05T02:30:24.134Z,4.72
2024-02-05T02:33:05.244Z,6.13
2024-02-05T02:35:39.602Z,5.70
2024-02-05T02:38:12.957Z,5.43
2024-02-05T02:40:43.167Z,5.07
2024-02-05T02:43:12.404Z,5.85
2024-02-05T02:45:40.900Z,5.40
2024-02-05T02:48:09.429Z,5.70
2024-02-05T02:50:37.615Z,5.53
2024-02-05T02:53:06.112Z,5.43
2024-02-05T02:55:34.566Z,5.93
2024-02-05T02:58:04.111Z,5.95
2024-02-05T03:00:32.197Z,5.65
2024-02-05T03:03:00.419Z,5.68
2024-02-05T03:05:28.490Z,6.47
2024-02-05T03:07:56.556Z,5.95
2024-02-05T03:10:27.291Z,5.75
2024-02-05T03:12:55.652Z,5.53
2024-02-05T03:15:25.073Z,5.63
2024-02-05T03:17:53.184Z,6.78
2024-02-05T03:20:35.596Z,6.65
2024-02-05T03:23:09.561Z,5.65
2024-02-05T03:25:39.402Z,6.05
2024-02-05T03:28:09.851Z,6.35
2024-02-05T03:30:40.405Z,6.05
2024-02-05T03:33:09.625Z,6.50
2024-02-05T03:35:38.642Z,6.15
2024-02-05T03:38:06.740Z,5.90
2024-02-05T03:40:34.935Z,5.38
2024-02-05T03:43:03.008Z,6.20
2024-02-05T03:45:31.604Z,5.80
2024-02-05T03:48:02.225Z,6.00
2024-02-05T03:50:32.061Z,7.00
2024-02-05T03:53:00.199Z,6.20
2024-02-05T03:55:28.309Z,6.68
2024-02-05T03:58:00.968Z,7.03
2024-02-05T04:02:57.311Z,6.18
2024-02-05T04:05:29.789Z,5.93
2024-02-05T04:10:28.120Z,6.40
2024-02-05T04:12:56.439Z,6.80
2024-02-05T04:15:24.603Z,7.40
2024-02-05T04:17:52.774Z,7.15
2024-02-05T04:20:21.672Z,6.32
2024-02-05T04:22:51.470Z,6.28
2024-02-05T04:25:19.791Z,6.95
2024-02-05T04:27:48.170Z,7.07
2024-02-05T04:30:17.495Z,6.32
2024-02-05T04:32:45.956Z,6.78
2024-02-05T04:35:14.286Z,7.05
2024-02-05T04:37:44.298Z,7.03
2024-02-05T04:40:16.630Z,7.07
2024-02-05T04:42:44.863Z,6.47
2024-02-05T04:45:13.533Z,6.35
2024-02-05T04:47:42.498Z,6.50
2024-02-05T04:50:11.332Z,7.50
2024-02-05T04:52:39.442Z,6.35
2024-02-05T04:55:08.274Z,6.95
2024-02-05T04:57:37.914Z,6.07
2024-02-05T05:00:07.630Z,6.32
2024-02-05T05:02:35.796Z,6.95
2024-02-05T05:05:03.981Z,5.53
2024-02-05T05:07:32.097Z,6.25
2024-02-05T05:10:00.474Z,6.18
2024-02-05T05:12:29.361Z,6.43
2024-02-05T05:14:58.797Z,6.13
2024-02-05T05:17:26.907Z,6.00
2024-02-05T05:19:55.122Z,6.03
2024-02-05T05:22:23.225Z,6.25
2024-02-05T05:24:51.579Z,5.85
2024-02-05T05:27:19.821Z,5.85
2024-02-05T05:29:48.049Z,5.57
2024-02-05T05:32:17.564Z,6.22
2024-02-05T05:34:45.665Z,5.95
2024-02-05T05:37:13.927Z,5.22
2024-02-05T05:39:42.059Z,5.30
2024-02-05T05:42:12.451Z,5.80
2024-02-05T05:44:40.598Z,6.13
2024-02-05T05:47:08.760Z,6.15
2024-02-05T05:49:38.473Z,5.70
2024-02-05T05:52:07.247Z,5.53
2024-02-05T05:54:35.506Z,6.55
2024-02-05T05:57:03.561Z,5.85
2024-02-05T05:59:34.272Z,6.18
2024-02-05T06:02:02.603Z,6.03
2024-02-05T06:04:30.867Z,5.75
2024-02-05T06:07:00.454Z,6.60
2024-02-05T06:09:28.691Z,6.90
2024-02-05T06:11:59.268Z,6.13
2024-02-05T06:14:27.434Z,6.35
2024-02-05T06:16:55.563Z,5.18
2024-02-05T06:19:26.069Z,5.40
2024-02-05T06:21:54.291Z,6.43
2024-02-05T06:24:23.842Z,5.22
2024-02-05T06:26:52.057Z,6.45
2024-02-05T06:29:20.185Z,6.93
2024-02-05T06:31:48.279Z,5.30
2024-02-05T06:34:17.221Z,5.60
2024-02-05T06:36:45.428Z,5.82
2024-02-05T06:39:14.527Z,5.22
2024-02-05T06:41:44.012Z,6.18
2024-02-05T06:44:12.136Z,6.50
2024-02-05T06:46:40.179Z,5.57
2024-02-05T06:49:08.278Z,5.90
2024-02-05T06:51:36.480Z,5.88
2024-02-05T06:54:07.243Z,6.03
2024-02-05T06:56:35.433Z,7.03
2024-02-05T06:59:04.887Z,5.65
2024-02-05T07:01:33.217Z,5.88
2024-02-05T07:04:01.428Z,5.22
2024-02-05T07:06:29.573Z,6.35
2024-02-05T07:08:57.664Z,6.28
2024-02-05T07:11:25.784Z,6.63
2024-02-05T07:13:53.880Z,4.95
2024-02-05T07:16:23.602Z,5.28
2024-02-05T07:18:51.844Z,5.40
2024-02-05T07:21:20.156Z,6.05
2024-02-05T07:23:48.306Z,5.40
2024-02-05T07:26:16.418Z,6.05
2024-02-05T07:28:46.164Z,5.80
2024-02-05T07:31:14.512Z,6.15
2024-02-05T07:33:44.010Z,6.15
2024-02-05T07:36:12.169Z,6.03
2024-02-05T07:38:40.322Z,6.07
2024-02-05T07:41:08.440Z,6.10
2024-02-05T07:43:40.256Z,6.95
2024-02-05T07:46:09.790Z,5.33
2024-02-05T07:48:38.166Z,6.03
2024-02-05T07:51:09.460Z,6.20
2024-02-05T07:53:40.992Z,5.75
2024-02-05T07:56:10.703Z,6.30
2024-02-05T07:58:39.159Z,5.65
2024-02-05T08:01:07.552Z,5.45
2024-02-05T08:03:37.817Z,6.35
2024-02-05T08:06:09.917Z,5.00
2024-02-05T08:08:38.081Z,5.60
2024-02-05T08:11:06.246Z,6.18
2024-02-05T08:13:34.319Z,5.97
2024-02-05T08:16:03.376Z,6.18
2024-02-05T08:18:31.634Z,5.90
2024-02-05T08:21:00.064Z,7.38
2024-02-05T08:23:29.553Z,6.03
2024-02-05T08:25:57.756Z,6.15
2024-02-05T08:28:28.105Z,5.95
2024-02-05T08:30:57.637Z,6.13
2024-02-05T08:33:26.032Z,6.22
2024-02-05T08:35:54.719Z,6.82
2024-02-05T08:38:24.827Z,7.03
2024-02-05T08:40:54.501Z,6.57
2024-02-05T08:43:22.706Z,7.30
2024-02-05T08:45:51.884Z,5.80
2024-02-05T08:48:20.177Z,6.28
2024-02-05T08:50:48.347Z,6.80
2024-02-05T08:53:16.803Z,6.82
2024-02-05T08:55:45.911Z,7.55
2024-02-05T08:58:15.706Z,7.47
2024-02-05T09:00:43.968Z,7.57
2024-02-05T09:03:12.724Z,8.18
2024-02-05T09:05:46.177Z,7.55
2024-02-05T09:08:15.191Z,8.65
2024-02-05T09:10:43.270Z,8.65
2024-02-05T09:13:11.552Z,9.95
2024-02-05T09:15:43.611Z,10.02
2024-02-05T09:18:12.025Z,9.10
2024-02-05T09:20:40.215Z,10.25
2024-02-05T09:23:08.497Z,9.32
2024-02-05T09:25:36.625Z,9.63
2024-02-05T09:28:05.385Z,9.48
2024-02-05T09:30:34.049Z,9.82
2024-02-05T09:33:03.627Z,9.32
2024-02-05T09:35:32.072Z,8.95
2024-02-05T09:38:00.162Z,8.40
2024-02-05T09:40:29.881Z,8.57
2024-02-05T09:42:58.417Z,8.57
2024-02-05T09:45:28.998Z,9.13
2024-02-05T09:47:58.232Z,7.85
2024-02-05T09:50:29.563Z,8.07
2024-02-05T09:52:57.991Z,7.82
2024-02-05T09:55:29.086Z,7.00
2024-02-05T09:57:58.260Z,7.38
2024-02-05T10:00:28.991Z,6.82
2024-02-05T10:02:57.351Z,7.15
2024-02-05T10:05:28.236Z,7.65
2024-02-05T10:07:58.336Z,6.32
2024-02-05T10:10:30.032Z,6.47
2024-02-05T10:12:58.896Z,6.55
2024-02-05T10:15:27.196Z,6.55
2024-02-05T10:17:55.409Z,6.85
2024-02-05T10:20:34.302Z,5.68
2024-02-05T10:23:02.513Z,5.38
2024-02-05T10:25:30.625Z,5.88
2024-02-05T10:28:03.977Z,5.35
2024-02-05T10:30:32.995Z,5.40
2024-02-05T10:33:02.110Z,5.22
2024-02-05T10:35:31.850Z,6.03
2024-02-05T10:38:08.887Z,5.82
2024-02-05T10:40:37.771Z,5.32
2024-02-05T10:43:09.864Z,5.25
2024-02-05T10:45:40.630Z,5.47
2024-02-05T10:48:09.286Z,4.85
2024-02-05T10:50:38.913Z,6.72
2024-02-05T10:53:07.391Z,5.65
2024-02-05T10:55:36.459Z,6.07
2024-02-05T10:58:06.514Z,5.07
2024-02-05T11:00:34.714Z,5.10
2024-02-05T11:03:06.797Z,4.93
2024-02-05T11:05:36.727Z,5.07
2024-02-05T11:08:10.756Z,5.53
2024-02-05T11:10:44.929Z,5.05
2024-02-05T11:13:17.955Z,5.20
2024-02-05T11:15:48.949Z,5.70
2024-02-05T11:18:20.952Z,5.25
2024-02-05T11:20:51.276Z,5.18
2024-02-05T11:23:23.805Z,4.88
2024-02-05T11:25:52.193Z,6.05
2024-02-05T11:28:20.655Z,5.35
2024-02-05T11:30:50.985Z,5.50
2024-02-05T11:33:27.234Z,6.32
2024-02-05T11:35:57.396Z,6.95
2024-02-05T11:38:28.179Z,7.03
2024-02-05T11:40:56.770Z,7.55
2024-02-05T11:43:26.079Z,8.15
2024-02-05T11:45:55.096Z,7.97
2024-02-05T11:48:24.143Z,7.80
2024-02-05T11:50:53.050Z,7.55
2024-02-05T11:53:23.117Z,7.70
2024-02-05T11:55:52.734Z,8.75
2024-02-05T11:58:20.996Z,7.35
2024-02-05T12:00:49.518Z,8.30
2024-02-05T12:03:18.347Z,7.95
2024-02-05T12:05:46.691Z,8.13
2024-02-05T12:08:15.078Z,8.45
2024-02-05T12:10:43.576Z,8.18
2024-02-05T12:13:17.839Z,8.80
2024-02-05T12:15:49.585Z,8.77
2024-02-05T12:18:17.890Z,9.30
2024-02-05T12:20:46.061Z,8.60
2024-02-05T12:23:14.249Z,8.73
2024-02-05T12:25:45.659Z,8.50
2024-02-05T12:28:16.773Z,8.75
2024-02-05T12:30:45.205Z,8.18
2024-02-05T12:33:16.441Z,8.52
2024-02-05T12:35:44.901Z,8.05
2024-02-05T12:38:13.709Z,8.73
2024-02-05T12:40:41.904Z,8.23
2024-02-05T12:43:10.108Z,9.00
2024-02-05T12:45:42.800Z,8.80
2024-02-05T12:48:11.290Z,9.10
2024-02-05T12:50:41.549Z,9.18
2024-02-05T12:53:10.604Z,8.93
2024-02-05T12:55:38.743Z,8.93
2024-02-05T12:58:07.053Z,8.90
2024-02-05T13:00:35.372Z,8.43
2024-02-05T13:03:10.965Z,8.30
2024-02-05T13:05:41.601Z,8.10
2024-02-05T13:08:11.173Z,7.80
2024-02-05T13:10:43.478Z,7.57
2024-02-05T13:13:12.504Z,8.30
2024-02-05T13:15:42.348Z,7.90
2024-02-05T13:18:12.712Z,7.75
2024-02-05T13:20:41.293Z,7.85
2024-02-05T13:23:10.500Z,7.07
2024-02-05T13:25:45.417Z,7.30
2024-02-05T13:28:14.987Z,6.97
2024-02-05T13:30:43.804Z,6.78
2024-02-05T13:33:14.062Z,6.47
2024-02-05T13:35:42.382Z,6.70
2024-02-05T13:38:10.464Z,6.70
2024-02-05T13:40:38.756Z,6.47
2024-02-05T13:43:07.228Z,7.50
2024-02-05T13:45:35.691Z,6.00
2024-02-05T13:48:06.882Z,6.63
2024-02-05T13:50:36.549Z,6.30
2024-02-05T13:53:04.652Z,6.60
2024-02-05T13:55:32.941Z,7.40
2024-02-05T13:58:01.054Z,7.47
2024-02-05T14:00:29.275Z,6.53
2024-02-05T14:02:57.415Z,6.60
2024-02-05T14:05:25.696Z,6.97
2024-02-05T14:07:55.385Z,7.22
2024-02-05T14:10:23.562Z,7.18
2024-02-05T14:12:51.732Z,5.97
2024-02-05T14:15:19.835Z,5.78
2024-02-05T14:17:47.976Z,6.63
2024-02-05T14:20:16.109Z,6.07
2024-02-05T14:22:46.789Z,7.10
2024-02-05T14:25:16.673Z,6.20
2024-02-05T14:27:47.030Z,5.95
2024-02-05T14:30:15.639Z,5.95
2024-02-05T14:32:43.811Z,5.93
2024-02-05T14:35:12.045Z,6.00
2024-02-05T14:37:40.258Z,6.88
2024-02-05T14:40:09.360Z,6.68
2024-02-05T14:42:39.231Z,6.38
2024-02-05T14:45:09.251Z,6.30
2024-02-05T14:47:40.436Z,5.30
2024-02-05T14:50:09.581Z,6.50
2024-02-05T14:52:37.792Z,5.93
2024-02-05T14:55:06.714Z,5.80
2024-02-05T14:57:34.866Z,6.10
2024-02-05T15:00:07.174Z,5.72
2024-02-05T15:02:35.577Z,5.43
2024-02-05T15:05:05.474Z,5.40
2024-02-05T15:07:33.813Z,4.95
2024-02-05T15:10:01.950Z,5.93
2024-02-05T15:12:30.600Z,5.72
2024-02-05T15:15:01.113Z,5.60
2024-02-05T15:17:30.720Z,6.05
2024-02-05T15:19:58.955Z,4.70
2024-02-05T15:22:27.203Z,5.63
2024-02-05T15:24:55.322Z,6.10
2024-02-05T15:27:23.477Z,5.07
2024-02-05T15:29:51.643Z,5.40
2024-02-05T15:32:20.329Z,4.50
2024-02-05T15:34:51.082Z,5.30
2024-02-05T15:37:20.917Z,4.47
2024-02-05T15:39:49.673Z,4.35
2024-02-05T15:42:18.043Z,4.22
2024-02-05T15:44:49.113Z,5.00
2024-02-05T15:47:17.675Z,5.00
2024-02-05T15:49:45.840Z,4.50
2024-02-05T15:52:15.713Z,5.13
2024-02-05T15:54:43.955Z,5.32
2024-02-05T15:57:12.109Z,4.82
2024-02-05T15:59:40.186Z,5.30
2024-02-05T16:02:08.462Z,4.65
2024-02-05T16:04:37.022Z,5.85
2024-02-05T16:07:05.624Z,8.38
2024-02-05T16:09:35.501Z,5.05
2024-02-05T16:12:03.678Z,4.57
2024-02-05T16:14:31.820Z,4.75
2024-02-05T16:17:00.529Z,5.65
2024-02-05T16:19:31.526Z,4.68
2024-02-05T16:21:59.863Z,4.85
2024-02-05T16:24:28.079Z,4.72
2024-02-05T16:26:57.665Z,4.93
2024-02-05T16:29:25.786Z,4.25
2024-02-05T16:31:53.972Z,4.43
2024-02-05T16:34:22.349Z,5.13
2024-02-05T16:36:51.576Z,5.18
2024-02-05T16:39:21.532Z,4.80
2024-02-05T16:41:49.668Z,4.65
2024-02-05T16:44:19.189Z,4.95
2024-02-05T16:46:47.568Z,5.07
2024-02-05T16:49:15.927Z,5.32
2024-02-05T16:51:44.168Z,4.75
2024-02-05T16:54:12.198Z,4.57
2024-02-05T16:56:40.361Z,4.78
2024-02-05T16:59:10.741Z,4.10
2024-02-05T17:01:43.265Z,4.03
2024-02-05T17:04:11.611Z,4.10
2024-02-05T17:06:39.911Z,4.55
2024-02-05T17:09:08.493Z,4.40
2024-02-05T17:11:40.504Z,5.00
2024-02-05T17:14:09.269Z,5.50
2024-02-05T17:16:50.784Z,6.50
2024-02-05T17:19:22.692Z,5.82
2024-02-05T17:21:50.974Z,5.10
2024-02-05T17:24:19.076Z,5.60
2024-02-05T17:26:47.149Z,5.25
2024-02-05T17:29:15.672Z,5.07
2024-02-05T17:31:45.592Z,4.40
2024-02-05T17:34:14.245Z,5.32
2024-02-05T17:36:42.434Z,5.45
2024-02-05T17:39:11.756Z,4.95
2024-02-05T17:41:40.764Z,5.22
2024-02-05T17:44:09.154Z,4.22
2024-02-05T17:46:37.391Z,4.10
2024-02-05T17:49:07.153Z,3.78
2024-02-05T17:51:35.397Z,4.38
2024-02-05T17:54:03.494Z,3.67
2024-02-05T17:56:31.644Z,3.25
2024-02-05T17:59:00.448Z,4.47
2024-02-05T18:01:29.040Z,3.35
2024-02-05T18:03:59.118Z,3.75
2024-02-05T18:06:29.328Z,3.88
2024-02-05T18:08:57.472Z,4.22
2024-02-05T18:11:25.596Z,3.92
2024-02-05T18:13:55.540Z,3.83
2024-02-05T18:16:23.996Z,4.68
2024-02-05T18:18:52.533Z,4.20
2024-02-05T18:21:21.578Z,4.43
2024-02-05T18:23:51.191Z,4.00
2024-02-05T18:26:19.503Z,3.90
2024-02-05T18:28:47.714Z,3.88
2024-02-05T18:31:15.953Z,4.18
2024-02-05T18:33:44.167Z,4.22
2024-02-05T18:36:12.290Z,3.50
2024-02-05T18:38:40.459Z,4.20
2024-02-05T18:41:10.298Z,3.97
2024-02-05T18:43:38.613Z,3.95
2024-02-05T18:46:07.916Z,4.50
2024-02-05T18:48:36.083Z,4.00
2024-02-05T18:51:04.490Z,4.00
2024-02-05T18:53:35.475Z,3.92
2024-02-05T18:56:04.622Z,4.10
2024-02-05T18:58:38.198Z,3.80
2024-02-05T19:01:06.995Z,4.07
2024-02-05T19:03:35.129Z,3.42
2024-02-05T19:06:03.343Z,4.40
2024-02-05T19:08:31.446Z,4.35
2024-02-05T19:10:59.606Z,4.05
2024-02-05T19:13:31.847Z,3.88
2024-02-05T19:16:05.288Z,3.72
2024-02-05T19:18:33.547Z,4.47
2024-02-05T19:21:01.780Z,4.45
2024-02-05T19:23:29.945Z,4.22
2024-02-05T19:25:58.232Z,4.00
2024-02-05T19:28:26.524Z,4.47
2024-02-05T19:30:56.114Z,4.10
2024-02-05T19:33:25.829Z,4.97
2024-02-05T19:35:54.005Z,4.97
2024-02-05T19:38:22.088Z,5.28
2024-02-05T19:40:51.535Z,4.70
2024-02-05T19:43:19.617Z,5.45
2024-02-05T19:45:47.880Z,5.60
2024-02-05T19:48:16.058Z,6.10
2024-02-05T19:50:48.238Z,6.18
2024-02-05T19:53:17.550Z,6.50
2024-02-05T19:55:46.701Z,7.13
2024-02-05T19:58:14.949Z,6.68
2024-02-05T20:00:43.219Z,7.20
2024-02-05T20:03:12.404Z,6.38
2024-02-05T20:05:40.547Z,6.85
2024-02-05T20:08:12.552Z,6.90
2024-02-05T20:10:40.936Z,6.47
2024-02-05T20:13:09.150Z,7.18
2024-02-05T20:15:37.246Z,7.32
2024-02-05T20:18:06.543Z,6.55
2024-02-05T20:20:36.977Z,6.80
2024-02-05T20:23:06.583Z,6.15
2024-02-05T20:25:36.092Z,6.93
2024-02-05T20:28:04.739Z,7.82
2024-02-05T20:30:32.873Z,6.50
2024-02-05T20:33:00.964Z,6.85
2024-02-05T20:35:29.399Z,6.35
2024-02-05T20:37:59.885Z,7.25
2024-02-05T20:40:28.298Z,7.28
2024-02-05T20:42:57.787Z,7.05
2024-02-05T20:45:25.987Z,7.40
2024-02-05T20:47:54.141Z,6.78
2024-02-05T20:50:24.054Z,6.70
2024-02-05T20:52:52.246Z,7.15
2024-02-05T20:55:20.492Z,7.13
2024-02-05T20:57:49.004Z,7.93
2024-02-05T21:00:20.170Z,6.53
2024-02-05T21:02:48.318Z,6.85
2024-02-05T21:05:16.777Z,6.50
2024-02-05T21:07:45.069Z,7.15
2024-02-05T21:10:13.348Z,7.60
2024-02-05T21:12:41.502Z,7.50
2024-02-05T21:15:10.209Z,6.80
2024-02-05T21:17:39.756Z,6.90
2024-02-05T21:20:09.210Z,7.30
2024-02-05T21:22:39.672Z,7.03
2024-02-05T21:25:08.350Z,7.18
2024-02-05T21:27:36.471Z,7.38
2024-02-05T21:30:05.035Z,7.25
2024-02-05T21:32:33.292Z,6.57
2024-02-05T21:35:03.166Z,6.90
2024-02-05T21:37:31.561Z,6.60
2024-02-05T21:39:59.765Z,7.18
2024-02-05T21:42:27.816Z,6.43
2024-02-05T21:44:55.949Z,6.88
2024-02-05T21:47:24.344Z,6.82
2024-02-05T21:49:52.584Z,6.55
2024-02-05T21:52:22.372Z,6.82
2024-02-05T21:54:50.616Z,6.55
2024-02-05T21:57:18.741Z,6.57
2024-02-05T21:59:46.966Z,7.40
2024-02-05T22:02:15.900Z,6.82
2024-02-05T22:04:44.526Z,7.20
2024-02-05T22:07:13.692Z,7.15
2024-02-05T22:09:45.400Z,7.43
2024-02-05T22:12:15.296Z,7.90
2024-02-05T22:14:43.641Z,7.50
2024-02-05T22:17:11.820Z,8.40
2024-02-05T22:19:39.939Z,8.23
2024-02-05T22:22:14.119Z,8.43
2024-02-05T22:24:43.729Z,8.02
2024-02-05T22:27:14.205Z,8.10
2024-02-05T22:29:42.337Z,8.20
2024-02-05T22:32:10.447Z,8.13
2024-02-05T22:34:39.094Z,8.15
2024-02-05T22:37:08.040Z,6.70
2024-02-05T22:39:36.406Z,7.70
2024-02-05T22:42:06.402Z,7.97
2024-02-05T22:44:34.555Z,8.30
2024-02-05T22:47:05.336Z,7.18
2024-02-05T22:49:33.527Z,8.05
2024-02-05T22:52:01.791Z,7.97
2024-02-05T22:54:29.867Z,7.78
2024-02-05T22:56:57.921Z,7.70
2024-02-05T22:59:27.421Z,7.13
2024-02-05T23:01:55.604Z,7.22
2024-02-05T23:04:24.208Z,8.00
2024-02-05T23:06:52.386Z,7.00
2024-02-05T23:09:20.486Z,7.18
2024-02-05T23:11:49.513Z,6.13
2024-02-05T23:14:17.646Z,6.07
2024-02-05T23:16:47.143Z,6.72
2024-02-05T23:19:15.382Z,6.22
2024-02-05T23:21:43.580Z,7.00
2024-02-05T23:24:12.280Z,7.15
2024-02-05T23:26:43.517Z,7.18
2024-02-05T23:29:12.038Z,6.55
2024-02-05T23:31:41.139Z,6.53
2024-02-05T23:34:10.939Z,7.13
2024-02-05T23:36:39.159Z,6.45
2024-02-05T23:39:08.485Z,6.70
2024-02-05T23:41:36.656Z,7.20
2024-02-05T23:44:04.936Z,7.05
2024-02-05T23:46:33.156Z,7.40
2024-02-05T23:49:02.041Z,6.68
2024-02-05T23:51:31.699Z,7.03
2024-02-05T23:54:00.959Z,7.32
2024-02-05T23:56:29.123Z,7.35
2024-02-05T23:58:57.256Z,8.52
